createdAt,value
2019-03-04T00:01:32.577Z,0.70
2019-03-04T00:04:00.987Z,0.70
2019-03-04T00:06:29.382Z,0.80
2019-03-04T00:08:57.805Z,0.80
2019-03-04T00:11:26.271Z,0.60
2019-03-04T00:13:54.682Z,0.90
2019-03-04T00:16:23.086Z,0.83
2019-03-04T00:18:51.514Z,1.10
2019-03-04T00:21:19.906Z,0.83
2019-03-04T00:23:48.326Z,0.73
2019-03-04T00:26:16.717Z,0.87
2019-03-04T00:28:45.110Z,0.93
2019-03-04T00:31:13.831Z,0.80
2019-03-04T00:33:42.221Z,1.03
2019-03-04T00:36:10.615Z,0.57
2019-03-04T00:38:39.031Z,0.93
2019-03-04T00:41:07.504Z,0.90
2019-03-04T00:43:35.891Z,0.93
2019-03-04T00:46:04.386Z,0.83
2019-03-04T00:48:32.783Z,0.60
2019-03-04T00:51:01.258Z,0.70
2019-03-04T00:53:29.667Z,0.70
2019-03-04T00:55:58.059Z,1.00
2019-03-04T00:58:26.462Z,1.10
2019-03-04T01:00:54.963Z,0.90
2019-03-04T01:03:23.354Z,0.70
2019-03-04T01:05:51.747Z,0.87
2019-03-04T01:08:20.226Z,0.80
2019-03-04T01:10:48.610Z,1.30
2019-03-04T01:13:17.017Z,0.90
2019-03-04T01:15:45.435Z,1.00
2019-03-04T01:18:13.827Z,0.70
2019-03-04T01:20:42.231Z,1.20
2019-03-04T01:23:10.623Z,1.10
2019-03-04T01:25:39.031Z,1.00
2019-03-04T01:28:07.436Z,1.00
2019-03-04T01:30:35.822Z,0.87
2019-03-04T01:33:04.303Z,0.90
2019-03-04T01:35:32.807Z,1.07
2019-03-04T01:38:01.191Z,0.83
2019-03-04T01:40:29.598Z,0.80
2019-03-04T01:42:58.006Z,0.80
2019-03-04T01:45:26.414Z,1.20
2019-03-04T01:47:54.812Z,0.80
2019-03-04T01:50:23.228Z,0.63
2019-03-04T01:52:51.620Z,0.80
2019-03-04T01:55:40.607Z,0.70
2019-03-04T01:58:09.039Z,0.87
2019-03-04T02:00:37.518Z,0.67
2019-03-04T02:03:05.947Z,0.93
2019-03-04T02:05:34.334Z,1.07
2019-03-04T02:08:02.752Z,1.23
2019-03-04T02:10:31.133Z,1.37
2019-03-04T02:12:59.550Z,1.07
2019-03-04T02:15:27.962Z,1.20
2019-03-04T02:17:56.370Z,1.20
2019-03-04T02:20:25.082Z,1.00
2019-03-04T02:22:53.486Z,1.30
2019-03-04T02:25:30.563Z,1.10
2019-03-04T02:27:58.990Z,1.30
2019-03-04T02:30:28.518Z,1.23
2019-03-04T02:32:56.910Z,0.90
2019-03-04T02:35:25.314Z,0.93
2019-03-04T02:37:53.709Z,0.70
2019-03-04T02:40:22.092Z,0.93
2019-03-04T02:42:50.499Z,0.93
2019-03-04T02:45:19.569Z,0.90
2019-03-04T02:47:48.311Z,0.67
2019-03-04T02:50:17.044Z,0.77
2019-03-04T02:52:45.784Z,0.90
2019-03-04T02:55:16.915Z,1.10
2019-03-04T02:57:45.394Z,0.77
2019-03-04T03:00:17.993Z,0.80
2019-03-04T03:02:46.380Z,0.83
2019-03-04T03:05:15.794Z,0.90
2019-03-04T03:07:44.191Z,0.90
2019-03-04T03:10:14.010Z,0.83
2019-03-04T03:12:42.490Z,0.77
2019-03-04T03:15:15.597Z,0.93
2019-03-04T03:17:43.993Z,0.90
2019-03-04T03:20:14.310Z,0.77
2019-03-04T03:22:42.974Z,1.10
2019-03-04T03:25:15.376Z,0.80
2019-03-04T03:27:43.754Z,1.10
2019-03-04T03:30:22.216Z,0.90
2019-03-04T03:32:50.681Z,1.00
2019-03-04T03:35:19.141Z,1.37
2019-03-04T03:37:47.516Z,1.00
2019-03-04T03:40:21.940Z,1.20
2019-03-04T03:42:50.441Z,1.00
2019-03-04T03:45:19.141Z,1.07
2019-03-04T03:47:47.534Z,1.10
2019-03-04T03:50:16.688Z,0.90
2019-03-04T03:52:45.896Z,0.90
2019-03-04T03:55:15.999Z,1.00
2019-03-04T03:57:44.446Z,0.90
2019-03-04T04:00:23.353Z,0.70
2019-03-04T04:02:51.812Z,0.90
2019-03-04T04:05:20.404Z,0.70
2019-03-04T04:08:01.531Z,0.80
2019-03-04T04:10:29.918Z,0.90
2019-03-04T04:12:58.771Z,0.70
2019-03-04T04:15:27.180Z,0.70
2019-03-04T04:17:55.583Z,0.77
2019-03-04T04:20:23.980Z,0.70
2019-03-04T04:22:52.379Z,0.90
2019-03-04T04:25:20.791Z,1.43
2019-03-04T04:27:49.178Z,5.07
2019-03-04T04:30:22.789Z,3.03
2019-03-04T04:32:51.237Z,1.37
2019-03-04T04:35:19.638Z,1.30
2019-03-04T04:37:48.041Z,1.20
2019-03-04T04:40:16.426Z,1.00
2019-03-04T04:42:44.815Z,0.80
2019-03-04T04:45:13.495Z,0.90
2019-03-04T04:47:43.124Z,0.80
2019-03-04T04:50:14.865Z,0.93
2019-03-04T04:52:43.254Z,1.00
2019-03-04T04:55:11.642Z,1.00
2019-03-04T04:57:40.050Z,0.70
2019-03-04T05:00:14.203Z,0.70
2019-03-04T05:02:42.687Z,0.70
2019-03-04T05:05:11.154Z,0.80
2019-03-04T05:07:39.929Z,0.80
2019-03-04T05:10:11.403Z,0.70
2019-03-04T05:12:39.799Z,0.97
2019-03-04T05:15:10.842Z,0.60
2019-03-04T05:17:39.941Z,0.93
2019-03-04T05:20:14.895Z,0.90
2019-03-04T05:22:43.360Z,0.93
2019-03-04T05:25:11.915Z,0.50
2019-03-04T05:27:40.403Z,0.60
2019-03-04T05:30:14.549Z,0.63
2019-03-04T05:32:43.028Z,0.53
2019-03-04T05:35:11.674Z,0.90
2019-03-04T05:37:40.253Z,0.60
2019-03-04T05:40:11.795Z,0.63
2019-03-04T05:42:40.455Z,0.53
2019-03-04T05:45:11.712Z,0.57
2019-03-04T05:47:40.098Z,0.60
2019-03-04T05:50:11.294Z,0.67
2019-03-04T05:52:39.784Z,0.57
2019-03-04T05:55:10.915Z,0.57
2019-03-04T05:57:39.614Z,0.73
2019-03-04T06:00:17.452Z,0.93
2019-03-04T06:02:46.049Z,0.80
2019-03-04T06:05:15.076Z,0.67
2019-03-04T06:07:45.111Z,0.90
2019-03-04T06:10:14.058Z,0.70
2019-03-04T06:12:42.518Z,0.90
2019-03-04T06:15:16.232Z,1.07
2019-03-04T06:17:44.908Z,1.03
2019-03-04T06:20:15.439Z,0.90
2019-03-04T06:22:43.835Z,0.70
2019-03-04T06:25:14.708Z,0.80
2019-03-04T06:27:43.150Z,0.93
2019-03-04T06:30:14.707Z,0.60
2019-03-04T06:32:43.124Z,0.60
2019-03-04T06:35:13.255Z,1.10
2019-03-04T06:37:41.662Z,0.80
2019-03-04T06:40:13.109Z,0.80
2019-03-04T06:42:41.527Z,0.90
2019-03-04T06:45:12.462Z,0.70
2019-03-04T06:47:40.939Z,0.80
2019-03-04T06:50:28.783Z,0.77
2019-03-04T06:52:59.531Z,0.90
2019-03-04T06:55:36.650Z,0.77
2019-03-04T06:58:05.042Z,0.90
2019-03-04T07:00:39.270Z,1.00
2019-03-04T07:03:07.758Z,1.00
2019-03-04T07:05:49.682Z,1.13
2019-03-04T07:08:39.022Z,1.13
2019-03-04T07:11:07.438Z,1.13
2019-03-04T07:13:35.867Z,1.00
2019-03-04T07:16:04.255Z,1.10
2019-03-04T07:18:32.967Z,0.90
2019-03-04T07:21:01.365Z,1.00
2019-03-04T07:23:29.764Z,0.90
2019-03-04T07:25:58.169Z,0.97
2019-03-04T07:28:26.634Z,1.17
2019-03-04T07:30:55.052Z,1.30
2019-03-04T07:33:23.451Z,1.40
2019-03-04T07:35:51.855Z,1.37
2019-03-04T07:38:23.332Z,1.17
2019-03-04T07:40:51.790Z,1.40
2019-03-04T07:43:20.182Z,1.10
2019-03-04T07:45:48.601Z,0.90
2019-03-04T07:48:17.031Z,1.60
2019-03-04T07:50:45.799Z,1.33
2019-03-04T07:53:14.215Z,1.50
2019-03-04T07:55:42.635Z,1.40
2019-03-04T07:58:11.030Z,1.17
2019-03-04T08:00:39.445Z,1.40
2019-03-04T08:03:07.881Z,1.97
2019-03-04T08:05:37.815Z,1.10
2019-03-04T08:08:09.472Z,1.30
2019-03-04T08:10:55.550Z,0.97
2019-03-04T08:13:32.237Z,1.27
2019-03-04T08:16:00.636Z,1.30
2019-03-04T08:18:29.134Z,1.20
2019-03-04T08:20:57.999Z,1.20
2019-03-04T08:23:26.396Z,1.13
2019-03-04T08:25:54.803Z,1.47
2019-03-04T08:28:23.202Z,1.20
2019-03-04T08:30:51.615Z,0.60
2019-03-04T08:33:20.007Z,1.10
2019-03-04T08:35:48.413Z,0.70
2019-03-04T08:38:16.886Z,0.70
2019-03-04T08:40:45.271Z,0.80
2019-03-04T08:43:13.660Z,0.50
2019-03-04T08:45:42.062Z,0.30
2019-03-04T08:48:10.451Z,0.20
2019-03-04T08:50:38.864Z,0.30
2019-03-04T08:53:07.254Z,0.10
2019-03-04T08:55:35.742Z,0.27
2019-03-04T08:58:04.135Z,0.30
2019-03-04T09:00:32.607Z,0.10
2019-03-04T09:03:01.475Z,0.20
2019-03-04T09:05:29.883Z,0.10
2019-03-04T09:07:58.281Z,0.27
2019-03-04T09:10:32.200Z,0.20
2019-03-04T09:13:00.668Z,0.10
2019-03-04T09:15:29.074Z,0.30
2019-03-04T09:17:57.468Z,0.23
2019-03-04T09:20:25.988Z,0.20
2019-03-04T09:22:54.819Z,0.27
2019-03-04T09:25:35.175Z,0.37
2019-03-04T09:28:03.959Z,0.20
2019-03-04T09:30:32.596Z,0.30
2019-03-04T09:33:00.990Z,0.20
2019-03-04T09:35:29.405Z,0.10
2019-03-04T09:37:57.817Z,0.33
2019-03-04T09:40:28.970Z,0.40
2019-03-04T09:42:57.751Z,0.43
2019-03-04T09:45:26.155Z,0.17
2019-03-04T09:47:54.563Z,0.10
2019-03-04T09:50:25.682Z,0.33
2019-03-04T09:52:54.154Z,0.20
2019-03-04T09:55:22.734Z,0.30
2019-03-04T09:57:51.143Z,0.20
2019-03-04T10:00:37.694Z,0.30
2019-03-04T10:03:35.051Z,0.40
2019-03-04T10:06:23.135Z,0.30
2019-03-04T10:09:17.190Z,0.87
2019-03-04T10:12:00.384Z,0.30
2019-03-04T10:15:08.732Z,0.30
2019-03-04T10:17:56.527Z,0.40
2019-03-04T10:20:44.607Z,0.50
2019-03-04T10:23:31.083Z,0.40
2019-03-04T10:26:08.475Z,0.23
2019-03-04T10:29:02.619Z,0.20
2019-03-04T10:31:42.938Z,0.27
2019-03-04T10:34:32.141Z,1.03
2019-03-04T10:37:09.410Z,0.40
2019-03-04T10:39:43.627Z,0.40
2019-03-04T10:42:31.751Z,0.40
2019-03-04T10:45:14.989Z,0.50
2019-03-04T10:47:43.411Z,0.47
2019-03-04T10:50:11.870Z,0.77
2019-03-04T10:52:40.280Z,0.30
2019-03-04T10:55:11.945Z,0.70
2019-03-04T10:57:41.170Z,1.03
2019-03-04T11:00:17.513Z,0.50
2019-03-04T11:02:45.934Z,0.50
2019-03-04T11:05:14.477Z,0.63
2019-03-04T11:07:42.872Z,0.60
2019-03-04T11:10:13.035Z,0.70
2019-03-04T11:12:41.435Z,0.40
2019-03-04T11:15:26.863Z,0.30
2019-03-04T11:17:55.662Z,0.60
2019-03-04T11:20:24.222Z,0.50
2019-03-04T11:22:52.662Z,1.03
2019-03-04T11:25:21.122Z,0.60
2019-03-04T11:27:49.527Z,0.50
2019-03-04T11:30:29.566Z,0.60
2019-03-04T11:32:57.996Z,0.40
2019-03-04T11:35:26.422Z,0.40
2019-03-04T11:37:54.839Z,0.50
2019-03-04T11:40:30.588Z,0.43
2019-03-04T11:42:59.176Z,0.50
2019-03-04T11:45:27.636Z,0.40
2019-03-04T11:47:56.061Z,0.60
2019-03-04T11:50:25.287Z,0.53
2019-03-04T11:52:54.054Z,0.90
2019-03-04T11:55:31.310Z,0.67
2019-03-04T11:57:59.906Z,0.60
2019-03-04T12:00:36.818Z,0.70
2019-03-04T12:03:05.230Z,0.50
2019-03-04T12:05:33.634Z,0.43
2019-03-04T12:08:02.143Z,1.20
2019-03-04T12:10:30.819Z,0.50
2019-03-04T12:12:59.222Z,0.50
2019-03-04T12:15:27.616Z,0.57
2019-03-04T12:17:56.027Z,0.70
2019-03-04T12:20:24.414Z,0.40
2019-03-04T12:22:52.830Z,0.60
2019-03-04T12:25:21.565Z,0.33
2019-03-04T12:27:50.087Z,0.70
2019-03-04T12:30:20.758Z,0.87
2019-03-04T12:32:49.155Z,0.67
2019-03-04T12:35:17.894Z,0.40
2019-03-04T12:37:46.358Z,0.60
2019-03-04T12:40:19.714Z,0.60
2019-03-04T12:42:48.135Z,1.43
2019-03-04T12:45:33.712Z,0.60
2019-03-04T12:47:54.436Z,0.60
2019-03-04T12:50:34.192Z,0.87
2019-03-04T12:53:02.670Z,0.83
2019-03-04T12:55:31.058Z,0.57
2019-03-04T12:57:59.481Z,0.60
2019-03-04T13:00:33.218Z,0.80
2019-03-04T13:03:01.630Z,1.03
2019-03-04T13:05:30.019Z,0.77
2019-03-04T13:07:58.424Z,0.53
2019-03-04T13:10:27.514Z,0.90
2019-03-04T13:12:55.982Z,0.97
2019-03-04T13:15:37.994Z,0.50
2019-03-04T13:18:09.144Z,0.60
2019-03-04T13:20:37.809Z,0.67
2019-03-04T13:23:06.813Z,1.00
2019-03-04T13:25:35.226Z,0.80
2019-03-04T13:28:08.198Z,0.63
2019-03-04T13:30:39.614Z,0.97
2019-03-04T13:33:09.186Z,0.90
2019-03-04T13:35:41.732Z,0.70
2019-03-04T13:38:10.390Z,0.80
2019-03-04T13:40:39.874Z,0.80
2019-03-04T13:43:08.503Z,1.03
2019-03-04T13:45:36.912Z,0.50
2019-03-04T13:48:05.560Z,0.70
2019-03-04T13:50:37.581Z,0.47
2019-03-04T13:53:06.351Z,0.60
2019-03-04T13:55:34.745Z,1.20
2019-03-04T13:58:03.392Z,0.70
2019-03-04T14:00:42.719Z,0.83
2019-03-04T14:03:13.662Z,0.83
2019-03-04T14:05:42.094Z,1.00
2019-03-04T14:08:10.559Z,0.40
2019-03-04T14:10:46.998Z,1.20
2019-03-04T14:13:15.390Z,0.80
2019-03-04T14:15:45.427Z,0.80
2019-03-04T14:18:13.839Z,0.60
2019-03-04T14:20:42.250Z,0.60
2019-03-04T14:23:10.646Z,0.77
2019-03-04T14:25:39.285Z,1.10
2019-03-04T14:28:07.872Z,0.97
2019-03-04T14:30:36.355Z,1.00
2019-03-04T14:33:04.923Z,0.50
2019-03-04T14:35:33.334Z,0.67
2019-03-04T14:38:01.736Z,0.60
2019-03-04T14:40:30.127Z,0.77
2019-03-04T14:42:58.639Z,0.67
2019-03-04T14:45:27.872Z,0.93
2019-03-04T14:47:56.356Z,0.80
2019-03-04T14:50:25.008Z,0.63
2019-03-04T14:52:53.401Z,0.70
2019-03-04T14:55:24.882Z,0.77
2019-03-04T14:57:54.279Z,1.00
2019-03-04T15:00:27.651Z,0.57
2019-03-04T15:02:56.147Z,0.70
2019-03-04T15:05:25.462Z,0.77
2019-03-04T15:07:55.606Z,0.40
2019-03-04T15:10:24.062Z,0.83
2019-03-04T15:12:52.829Z,0.30
2019-03-04T15:15:26.269Z,0.40
2019-03-04T15:17:54.910Z,0.43
2019-03-04T15:20:25.153Z,0.47
2019-03-04T15:22:53.538Z,0.63
2019-03-04T15:25:33.267Z,0.47
2019-03-04T15:28:15.447Z,0.90
2019-03-04T15:30:46.569Z,0.50
2019-03-04T15:33:18.481Z,0.43
2019-03-04T15:35:45.215Z,0.60
2019-03-04T15:38:13.619Z,0.50
2019-03-04T15:40:42.125Z,0.53
2019-03-04T15:43:10.534Z,0.80
2019-03-04T15:45:40.710Z,0.33
2019-03-04T15:48:09.170Z,0.60
2019-03-04T15:50:37.580Z,0.50
2019-03-04T15:53:06.542Z,0.50
2019-03-04T15:55:35.019Z,0.77
2019-03-04T15:58:03.575Z,0.30
2019-03-04T16:00:32.030Z,0.27
2019-03-04T16:03:00.594Z,0.30
2019-03-04T16:05:29.231Z,0.37
2019-03-04T16:08:06.749Z,0.27
2019-03-04T16:10:34.445Z,0.23
2019-03-04T16:13:02.971Z,0.40
2019-03-04T16:15:31.551Z,0.20
2019-03-04T16:18:00.932Z,0.37
2019-03-04T16:20:29.415Z,0.63
2019-03-04T16:22:57.864Z,0.20
2019-03-04T16:25:26.313Z,0.20
2019-03-04T16:28:04.192Z,0.00
2019-03-04T16:30:32.923Z,0.20
2019-03-04T16:33:01.311Z,0.00
2019-03-04T16:35:29.734Z,0.10
2019-03-04T16:37:58.222Z,0.20
2019-03-04T16:40:26.781Z,0.20
2019-03-04T16:42:55.207Z,0.30
2019-03-04T16:45:24.042Z,0.10
2019-03-04T16:47:53.106Z,0.30
2019-03-04T16:50:36.413Z,0.20
2019-03-04T16:53:14.293Z,0.20
2019-03-04T16:55:42.674Z,0.20
2019-03-04T16:58:11.090Z,0.20
2019-03-04T17:00:39.648Z,0.40
2019-03-04T17:03:08.065Z,0.23
2019-03-04T17:05:36.529Z,0.30
2019-03-04T17:08:05.198Z,0.40
2019-03-04T17:10:33.659Z,1.43
2019-03-04T17:13:02.149Z,0.20
2019-03-04T17:15:30.619Z,0.20
2019-03-04T17:17:59.126Z,0.30
2019-03-04T17:20:27.592Z,0.10
2019-03-04T17:22:55.978Z,0.10
2019-03-04T17:25:25.084Z,0.10
2019-03-04T17:27:53.471Z,0.10
2019-03-04T17:30:23.736Z,0.10
2019-03-04T17:32:52.451Z,0.10
2019-03-04T17:35:23.923Z,0.20
2019-03-04T17:37:52.609Z,0.10
2019-03-04T17:40:28.649Z,0.37
2019-03-04T17:42:57.230Z,0.30
2019-03-04T17:45:27.678Z,0.30
2019-03-04T17:47:56.069Z,0.43
2019-03-04T17:50:41.009Z,0.10
2019-03-04T17:53:11.798Z,0.10
2019-03-04T17:55:40.326Z,0.10
2019-03-04T17:58:09.027Z,0.30
2019-03-04T18:00:39.623Z,0.60
2019-03-04T18:03:08.842Z,0.50
2019-03-04T18:05:37.311Z,0.30
2019-03-04T18:08:05.864Z,0.20
2019-03-04T18:10:34.270Z,0.30
2019-03-04T18:13:07.786Z,0.50
2019-03-04T18:15:38.127Z,0.30
2019-03-04T18:18:06.602Z,0.37
2019-03-04T18:20:35.057Z,0.30
2019-03-04T18:23:03.727Z,0.20
2019-03-04T18:25:35.306Z,1.43
2019-03-04T18:28:12.635Z,0.30
2019-03-04T18:31:10.175Z,0.77
2019-03-04T18:33:58.327Z,0.27
2019-03-04T18:36:44.786Z,0.27
2019-03-04T18:39:51.318Z,0.40
2019-03-04T18:42:34.907Z,0.57
2019-03-04T18:45:23.882Z,0.40
2019-03-04T18:48:13.293Z,0.50
2019-03-04T18:50:41.698Z,0.30
2019-03-04T18:53:10.090Z,0.40
2019-03-04T18:55:38.596Z,0.90
2019-03-04T18:58:26.326Z,0.60
2019-03-04T19:00:54.771Z,0.73
2019-03-04T19:03:23.270Z,0.80
2019-03-04T19:05:51.808Z,0.97
2019-03-04T19:08:20.223Z,1.10
2019-03-04T19:10:48.659Z,1.13
2019-03-04T19:13:17.071Z,0.77
2019-03-04T19:18:24.280Z,0.40
2019-03-04T19:20:52.768Z,0.57
2019-03-04T19:23:21.250Z,0.67
2019-03-04T19:25:49.671Z,0.90
2019-03-04T19:28:18.083Z,0.67
2019-03-04T19:30:46.705Z,0.60
2019-03-04T19:33:15.278Z,0.67
2019-03-04T19:35:43.671Z,0.50
2019-03-04T19:38:12.154Z,0.60
2019-03-04T19:40:40.554Z,0.80
2019-03-04T19:43:09.224Z,0.90
2019-03-04T19:45:37.980Z,0.70
2019-03-04T19:48:06.499Z,0.50
2019-03-04T19:50:34.964Z,0.80
2019-03-04T19:53:04.120Z,0.80
2019-03-04T19:55:32.528Z,0.60
2019-03-04T19:58:01.106Z,0.80
2019-03-04T20:00:31.410Z,0.67
2019-03-04T20:03:00.242Z,1.07
2019-03-04T20:05:31.034Z,0.70
2019-03-04T20:08:00.071Z,1.13
2019-03-04T20:10:30.355Z,0.90
2019-03-04T20:12:58.751Z,1.17
2019-03-04T20:15:32.547Z,0.80
2019-03-04T20:18:01.343Z,1.00
2019-03-04T20:20:30.046Z,1.10
2019-03-04T20:22:58.527Z,0.77
2019-03-04T20:25:47.783Z,0.90
2019-03-04T20:28:17.735Z,0.83
2019-03-04T20:30:46.128Z,0.77
2019-03-04T20:33:14.879Z,0.97
2019-03-04T20:35:43.547Z,0.60
2019-03-04T20:38:26.787Z,0.50
2019-03-04T20:40:55.277Z,0.37
2019-03-04T20:43:23.667Z,0.70
2019-03-04T20:45:52.127Z,0.70
2019-03-04T20:48:20.547Z,0.60
2019-03-04T20:50:48.980Z,0.60
2019-03-04T20:53:17.386Z,0.60
2019-03-04T20:55:45.795Z,0.33
2019-03-04T20:58:14.186Z,0.50
2019-03-04T21:00:42.923Z,0.30
2019-03-04T21:03:11.632Z,0.23
2019-03-04T21:05:40.095Z,0.20
2019-03-04T21:08:08.755Z,0.20
2019-03-04T21:10:37.402Z,0.30
2019-03-04T21:13:13.690Z,0.10
2019-03-04T21:15:42.098Z,0.43
2019-03-04T21:18:10.729Z,0.27
2019-03-04T21:20:39.190Z,0.40
2019-03-04T21:23:08.046Z,0.30
2019-03-04T21:25:45.106Z,0.33
2019-03-04T21:28:34.607Z,0.20
2019-03-04T21:31:30.632Z,0.20
2019-03-04T21:34:11.534Z,0.40
2019-03-04T21:36:55.249Z,0.40
2019-03-04T21:39:36.740Z,0.20
2019-03-04T21:42:34.990Z,0.30
2019-03-04T21:45:21.810Z,0.47
2019-03-04T21:47:53.288Z,0.40
2019-03-04T21:50:39.195Z,0.50
2019-03-04T21:53:13.687Z,0.50
2019-03-04T21:55:47.766Z,0.37
2019-03-04T21:58:16.161Z,0.37
2019-03-04T22:00:46.207Z,0.40
2019-03-04T22:03:19.794Z,0.50
2019-03-04T22:05:50.781Z,0.43
2019-03-04T22:08:19.351Z,0.30
2019-03-04T22:10:47.831Z,0.30
2019-03-04T22:13:16.215Z,0.30
2019-03-04T22:15:44.602Z,0.17
2019-03-04T22:18:13.656Z,0.30
2019-03-04T22:20:42.347Z,0.10
2019-03-04T22:23:10.844Z,0.30
2019-03-04T22:25:39.402Z,0.17
2019-03-04T22:28:07.871Z,0.10
2019-03-04T22:30:36.335Z,0.33
2019-03-04T22:33:05.350Z,0.20
2019-03-04T22:35:33.942Z,0.30
2019-03-04T22:38:02.499Z,0.33
2019-03-04T22:40:30.892Z,0.30
2019-03-04T22:42:59.373Z,0.40
2019-03-04T22:45:27.765Z,0.50
2019-03-04T22:47:56.158Z,0.30
2019-03-04T22:50:24.571Z,0.70
2019-03-04T22:52:53.116Z,0.40
2019-03-04T22:55:29.681Z,0.40
2019-03-04T22:57:58.146Z,0.30
2019-03-04T23:00:49.106Z,0.47
2019-03-04T23:03:18.630Z,0.40
2019-03-04T23:06:01.914Z,0.47
2019-03-04T23:08:30.307Z,0.40
2019-03-04T23:10:58.697Z,0.50
2019-03-04T23:13:51.498Z,0.30
2019-03-04T23:16:22.826Z,0.30
2019-03-04T23:18:51.218Z,0.50
2019-03-04T23:21:20.394Z,0.30
2019-03-04T23:23:48.783Z,0.40
2019-03-04T23:26:17.179Z,0.30
2019-03-04T23:28:45.849Z,0.27
2019-03-04T23:31:14.242Z,0.40
2019-03-04T23:33:42.647Z,0.30
2019-03-04T23:36:11.081Z,0.53
2019-03-04T23:38:39.472Z,0.30
2019-03-04T23:41:07.882Z,0.83
2019-03-04T23:43:36.277Z,0.30
2019-03-04T23:46:04.688Z,0.87
2019-03-04T23:48:33.298Z,0.47
2019-03-04T23:51:01.686Z,0.30
2019-03-04T23:53:31.133Z,0.50
2019-03-04T23:55:59.867Z,0.60
2019-03-04T23:58:28.526Z,0.40
